sensor_id;sensor_type;location;lat;lon;timestamp;temperature;humidity
3727;DHT22;1879;45.876;12.300;2023-08-06T00:01:35;19.90;99.90
3727;DHT22;1879;45.876;12.300;2023-08-06T00:04:03;19.90;99.90
3727;DHT22;1879;45.876;12.300;2023-08-06T00:06:30;20.10;99.90
3727;DHT22;1879;45.876;12.300;2023-08-06T00:08:58;20.20;99.90
3727;DHT22;1879;45.876;12.300;2023-08-06T00:11:25;20.30;99.90
3727;DHT22;1879;45.876;12.300;2023-08-06T00:13:52;20.30;99.90
3727;DHT22;1879;45.876;12.300;2023-08-06T00:16:19;20.30;99.90
3727;DHT22;1879;45.876;12.300;2023-08-06T00:18:46;20.30;99.90
3727;DHT22;1879;45.876;12.300;2023-08-06T00:21:12;20.30;99.90
3727;DHT22;1879;45.876;12.300;2023-08-06T00:23:39;20.20;99.90
3727;DHT22;1879;45.876;12.300;2023-08-06T00:26:08;20.10;99.90
3727;DHT22;1879;45.876;12.300;2023-08-06T00:28:35;20.00;99.90
3727;DHT22;1879;45.876;12.300;2023-08-06T00:31:02;19.90;99.90
3727;DHT22;1879;45.876;12.300;2023-08-06T00:33:29;19.70;99.90
3727;DHT22;1879;45.876;12.300;2023-08-06T00:35:55;19.70;99.90
3727;DHT22;1879;45.876;12.300;2023-08-06T00:38:22;19.70;99.90
3727;DHT22;1879;45.876;12.300;2023-08-06T00:40:49;19.70;99.90
3727;DHT22;1879;45.876;12.300;2023-08-06T00:43:18;19.70;99.90
3727;DHT22;1879;45.876;12.300;2023-08-06T00:45:45;19.80;99.90
3727;DHT22;1879;45.876;12.300;2023-08-06T00:48:13;19.80;99.90
3727;DHT22;1879;45.876;12.300;2023-08-06T00:50:40;19.90;99.90
3727;DHT22;1879;45.876;12.300;2023-08-06T00:53:07;20.00;99.90
3727;DHT22;1879;45.876;12.300;2023-08-06T00:55:34;20.00;99.90
3727;DHT22;1879;45.876;12.300;2023-08-06T00:58:02;20.00;99.90
3727;DHT22;1879;45.876;12.300;2023-08-06T01:00:30;20.00;99.90
3727;DHT22;1879;45.876;12.300;2023-08-06T01:02:58;20.00;99.90
3727;DHT22;1879;45.876;12.300;2023-08-06T01:05:25;19.90;99.90
3727;DHT22;1879;45.876;12.300;2023-08-06T01:08:06;19.90;99.90
3727;DHT22;1879;45.876;12.300;2023-08-06T01:10:44;19.90;99.90
3727;DHT22;1879;45.876;12.300;2023-08-06T01:13:19;19.80;99.90
3727;DHT22;1879;45.876;12.300;2023-08-06T01:15:54;19.80;99.90
3727;DHT22;1879;45.876;12.300;2023-08-06T01:18:22;19.80;99.90
3727;DHT22;1879;45.876;12.300;2023-08-06T01:20:51;19.80;99.90
3727;DHT22;1879;45.876;12.300;2023-08-06T01:23:18;19.80;99.90
3727;DHT22;1879;45.876;12.300;2023-08-06T01:25:49;19.70;99.90
3727;DHT22;1879;45.876;12.300;2023-08-06T01:28:22;19.70;99.90
3727;DHT22;1879;45.876;12.300;2023-08-06T01:30:55;19.70;99.90
3727;DHT22;1879;45.876;12.300;2023-08-06T01:33:27;19.70;99.90
3727;DHT22;1879;45.876;12.300;2023-08-06T01:35:57;19.70;99.90
3727;DHT22;1879;45.876;12.300;2023-08-06T01:38:25;19.70;99.90
3727;DHT22;1879;45.876;12.300;2023-08-06T01:40:53;19.70;99.90
3727;DHT22;1879;45.876;12.300;2023-08-06T01:43:20;19.70;99.90
3727;DHT22;1879;45.876;12.300;2023-08-06T01:45:47;19.60;99.90
3727;DHT22;1879;45.876;12.300;2023-08-06T01:48:14;19.60;99.90
3727;DHT22;1879;45.876;12.300;2023-08-06T01:50:41;19.60;99.90
3727;DHT22;1879;45.876;12.300;2023-08-06T01:53:10;19.60;99.90
3727;DHT22;1879;45.876;12.300;2023-08-06T01:55:37;19.60;99.90
3727;DHT22;1879;45.876;12.300;2023-08-06T01:58:04;19.50;99.90
3727;DHT22;1879;45.876;12.300;2023-08-06T02:00:31;19.50;99.90
3727;DHT22;1879;45.876;12.300;2023-08-06T02:02:58;19.60;99.90
3727;DHT22;1879;45.876;12.300;2023-08-06T02:05:25;19.50;99.90
3727;DHT22;1879;45.876;12.300;2023-08-06T02:07:52;19.50;99.90
3727;DHT22;1879;45.876;12.300;2023-08-06T02:10:20;19.50;99.90
3727;DHT22;1879;45.876;12.300;2023-08-06T02:12:47;19.50;99.90
3727;DHT22;1879;45.876;12.300;2023-08-06T02:15:14;19.40;99.90
3727;DHT22;1879;45.876;12.300;2023-08-06T02:17:41;19.40;99.90
3727;DHT22;1879;45.876;12.300;2023-08-06T02:20:09;19.40;99.90
3727;DHT22;1879;45.876;12.300;2023-08-06T02:22:36;19.40;99.90
3727;DHT22;1879;45.876;12.300;2023-08-06T02:25:03;19.40;99.90
3727;DHT22;1879;45.876;12.300;2023-08-06T02:27:31;19.40;99.90
3727;DHT22;1879;45.876;12.300;2023-08-06T02:29:58;19.40;99.90
3727;DHT22;1879;45.876;12.300;2023-08-06T02:32:26;19.40;99.90
3727;DHT22;1879;45.876;12.300;2023-08-06T02:34:55;19.40;99.90
3727;DHT22;1879;45.876;12.300;2023-08-06T02:37:22;19.40;99.90
3727;DHT22;1879;45.876;12.300;2023-08-06T02:39:49;19.40;99.90
3727;DHT22;1879;45.876;12.300;2023-08-06T02:42:16;19.40;99.90
3727;DHT22;1879;45.876;12.300;2023-08-06T02:44:44;19.50;99.90
3727;DHT22;1879;45.876;12.300;2023-08-06T02:47:11;19.50;99.90
3727;DHT22;1879;45.876;12.300;2023-08-06T02:49:38;19.40;99.90
3727;DHT22;1879;45.876;12.300;2023-08-06T02:52:06;19.40;99.90
3727;DHT22;1879;45.876;12.300;2023-08-06T02:54:33;19.30;99.90
3727;DHT22;1879;45.876;12.300;2023-08-06T02:57:00;19.40;99.90
3727;DHT22;1879;45.876;12.300;2023-08-06T02:59:27;19.40;99.90
3727;DHT22;1879;45.876;12.300;2023-08-06T03:01:55;19.40;99.90
3727;DHT22;1879;45.876;12.300;2023-08-06T03:04:22;19.40;99.90
3727;DHT22;1879;45.876;12.300;2023-08-06T03:06:49;19.40;99.90
3727;DHT22;1879;45.876;12.300;2023-08-06T03:09:16;19.40;99.90
3727;DHT22;1879;45.876;12.300;2023-08-06T03:11:43;19.40;99.90
3727;DHT22;1879;45.876;12.300;2023-08-06T03:14:10;19.40;99.90
3727;DHT22;1879;45.876;12.300;2023-08-06T03:16:37;19.40;99.90
3727;DHT22;1879;45.876;12.300;2023-08-06T03:19:05;19.30;99.90
3727;DHT22;1879;45.876;12.300;2023-08-06T03:21:32;19.30;99.90
3727;DHT22;1879;45.876;12.300;2023-08-06T03:23:59;19.30;99.90
3727;DHT22;1879;45.876;12.300;2023-08-06T03:26:26;19.30;99.90
3727;DHT22;1879;45.876;12.300;2023-08-06T03:28:53;19.30;99.90
3727;DHT22;1879;45.876;12.300;2023-08-06T03:31:20;19.30;99.90
3727;DHT22;1879;45.876;12.300;2023-08-06T03:33:47;19.30;99.90
3727;DHT22;1879;45.876;12.300;2023-08-06T03:36:15;19.30;99.90
3727;DHT22;1879;45.876;12.300;2023-08-06T03:38:42;19.30;99.90
3727;DHT22;1879;45.876;12.300;2023-08-06T03:41:09;19.40;99.90
3727;DHT22;1879;45.876;12.300;2023-08-06T03:43:36;19.40;99.90
3727;DHT22;1879;45.876;12.300;2023-08-06T03:46:03;19.40;99.90
3727;DHT22;1879;45.876;12.300;2023-08-06T03:48:30;19.40;99.90
3727;DHT22;1879;45.876;12.300;2023-08-06T03:50:57;19.50;99.90
3727;DHT22;1879;45.876;12.300;2023-08-06T03:53:27;19.40;99.90
3727;DHT22;1879;45.876;12.300;2023-08-06T03:55:54;19.40;99.90
3727;DHT22;1879;45.876;12.300;2023-08-06T03:58:25;19.40;99.90
3727;DHT22;1879;45.876;12.300;2023-08-06T04:00:58;19.40;99.90
3727;DHT22;1879;45.876;12.300;2023-08-06T04:03:25;19.50;99.90
3727;DHT22;1879;45.876;12.300;2023-08-06T04:05:52;19.50;99.90
3727;DHT22;1879;45.876;12.300;2023-08-06T04:08:19;19.50;99.90
3727;DHT22;1879;45.876;12.300;2023-08-06T04:10:51;19.50;99.90
3727;DHT22;1879;45.876;12.300;2023-08-06T04:13:19;19.50;99.90
3727;DHT22;1879;45.876;12.300;2023-08-06T04:15:46;19.50;99.90
3727;DHT22;1879;45.876;12.300;2023-08-06T04:18:13;19.50;99.90
3727;DHT22;1879;45.876;12.300;2023-08-06T04:20:42;19.50;99.90
3727;DHT22;1879;45.876;12.300;2023-08-06T04:23:10;19.50;99.90
3727;DHT22;1879;45.876;12.300;2023-08-06T04:25:37;19.50;99.90
3727;DHT22;1879;45.876;12.300;2023-08-06T04:28:06;19.50;99.90
3727;DHT22;1879;45.876;12.300;2023-08-06T04:30:33;19.50;99.90
3727;DHT22;1879;45.876;12.300;2023-08-06T04:33:00;19.40;99.90
3727;DHT22;1879;45.876;12.300;2023-08-06T04:35:27;19.40;99.90
3727;DHT22;1879;45.876;12.300;2023-08-06T04:37:54;19.40;99.90
3727;DHT22;1879;45.876;12.300;2023-08-06T04:40:21;19.40;99.90
3727;DHT22;1879;45.876;12.300;2023-08-06T04:42:47;19.40;99.90
3727;DHT22;1879;45.876;12.300;2023-08-06T04:45:16;19.50;99.90
3727;DHT22;1879;45.876;12.300;2023-08-06T04:47:43;19.50;99.90
3727;DHT22;1879;45.876;12.300;2023-08-06T04:50:10;19.50;99.90
3727;DHT22;1879;45.876;12.300;2023-08-06T04:52:37;19.50;99.90
3727;DHT22;1879;45.876;12.300;2023-08-06T04:55:05;19.50;99.90
3727;DHT22;1879;45.876;12.300;2023-08-06T04:57:32;19.50;99.90
3727;DHT22;1879;45.876;12.300;2023-08-06T04:59:59;19.40;99.90
3727;DHT22;1879;45.876;12.300;2023-08-06T05:02:27;19.40;99.90
3727;DHT22;1879;45.876;12.300;2023-08-06T05:04:54;19.40;99.90
3727;DHT22;1879;45.876;12.300;2023-08-06T05:07:21;19.30;99.90
3727;DHT22;1879;45.876;12.300;2023-08-06T05:09:48;19.30;99.90
3727;DHT22;1879;45.876;12.300;2023-08-06T05:12:15;19.30;99.90
3727;DHT22;1879;45.876;12.300;2023-08-06T05:14:42;19.40;99.90
3727;DHT22;1879;45.876;12.300;2023-08-06T05:17:09;19.30;99.90
3727;DHT22;1879;45.876;12.300;2023-08-06T05:19:37;19.40;99.90
3727;DHT22;1879;45.876;12.300;2023-08-06T05:22:04;19.40;99.90
3727;DHT22;1879;45.876;12.300;2023-08-06T05:24:31;19.40;99.90
3727;DHT22;1879;45.876;12.300;2023-08-06T05:26:58;19.40;99.90
3727;DHT22;1879;45.876;12.300;2023-08-06T05:29:25;19.40;99.90
3727;DHT22;1879;45.876;12.300;2023-08-06T05:31:52;19.40;99.90
3727;DHT22;1879;45.876;12.300;2023-08-06T05:34:19;19.50;99.90
3727;DHT22;1879;45.876;12.300;2023-08-06T05:36:48;19.50;99.90
3727;DHT22;1879;45.876;12.300;2023-08-06T05:39:14;19.50;99.90
3727;DHT22;1879;45.876;12.300;2023-08-06T05:41:41;19.60;99.90
3727;DHT22;1879;45.876;12.300;2023-08-06T05:44:08;19.60;99.90
3727;DHT22;1879;45.876;12.300;2023-08-06T05:46:35;19.50;99.90
3727;DHT22;1879;45.876;12.300;2023-08-06T05:49:02;19.50;99.90
3727;DHT22;1879;45.876;12.300;2023-08-06T05:51:30;19.40;99.90
3727;DHT22;1879;45.876;12.300;2023-08-06T05:53:59;19.40;99.90
3727;DHT22;1879;45.876;12.300;2023-08-06T05:56:25;19.40;99.90
3727;DHT22;1879;45.876;12.300;2023-08-06T05:58:52;19.40;99.90
3727;DHT22;1879;45.876;12.300;2023-08-06T06:01:19;19.50;99.90
3727;DHT22;1879;45.876;12.300;2023-08-06T06:03:46;19.50;99.90
3727;DHT22;1879;45.876;12.300;2023-08-06T06:06:13;19.60;99.90
3727;DHT22;1879;45.876;12.300;2023-08-06T06:08:40;19.60;99.90
3727;DHT22;1879;45.876;12.300;2023-08-06T06:11:08;19.70;99.90
3727;DHT22;1879;45.876;12.300;2023-08-06T06:13:35;19.70;99.90
3727;DHT22;1879;45.876;12.300;2023-08-06T06:16:02;19.70;99.90
3727;DHT22;1879;45.876;12.300;2023-08-06T06:18:30;19.70;99.90
3727;DHT22;1879;45.876;12.300;2023-08-06T06:20:57;19.80;99.90
3727;DHT22;1879;45.876;12.300;2023-08-06T06:23:24;19.80;99.90
3727;DHT22;1879;45.876;12.300;2023-08-06T06:25:51;19.90;99.90
3727;DHT22;1879;45.876;12.300;2023-08-06T06:28:20;19.90;99.90
3727;DHT22;1879;45.876;12.300;2023-08-06T06:30:47;20.00;99.90
3727;DHT22;1879;45.876;12.300;2023-08-06T06:33:14;20.10;99.90
3727;DHT22;1879;45.876;12.300;2023-08-06T06:35:41;20.10;99.90
3727;DHT22;1879;45.876;12.300;2023-08-06T06:38:08;20.10;99.90
3727;DHT22;1879;45.876;12.300;2023-08-06T06:40:35;20.20;99.90
3727;DHT22;1879;45.876;12.300;2023-08-06T06:43:03;20.30;99.90
3727;DHT22;1879;45.876;12.300;2023-08-06T06:45:31;20.30;99.90
3727;DHT22;1879;45.876;12.300;2023-08-06T06:47:58;20.30;99.90
3727;DHT22;1879;45.876;12.300;2023-08-06T06:50:25;20.30;99.90
3727;DHT22;1879;45.876;12.300;2023-08-06T06:52:52;20.40;99.90
3727;DHT22;1879;45.876;12.300;2023-08-06T06:55:19;20.40;99.90
3727;DHT22;1879;45.876;12.300;2023-08-06T06:57:46;20.40;99.90
3727;DHT22;1879;45.876;12.300;2023-08-06T07:00:14;20.50;99.90
3727;DHT22;1879;45.876;12.300;2023-08-06T07:02:42;20.50;99.90
3727;DHT22;1879;45.876;12.300;2023-08-06T07:05:09;20.50;99.90
3727;DHT22;1879;45.876;12.300;2023-08-06T07:07:36;20.50;99.90
3727;DHT22;1879;45.876;12.300;2023-08-06T07:10:04;20.60;99.90
3727;DHT22;1879;45.876;12.300;2023-08-06T07:12:31;20.60;99.90
3727;DHT22;1879;45.876;12.300;2023-08-06T07:14:58;20.70;99.90
3727;DHT22;1879;45.876;12.300;2023-08-06T07:17:25;20.70;99.90
3727;DHT22;1879;45.876;12.300;2023-08-06T07:19:53;20.70;99.90
3727;DHT22;1879;45.876;12.300;2023-08-06T07:22:20;20.70;99.90
3727;DHT22;1879;45.876;12.300;2023-08-06T07:24:47;20.70;99.90
3727;DHT22;1879;45.876;12.300;2023-08-06T07:27:14;20.80;99.90
3727;DHT22;1879;45.876;12.300;2023-08-06T07:29:41;20.80;99.90
3727;DHT22;1879;45.876;12.300;2023-08-06T07:32:08;20.90;99.90
3727;DHT22;1879;45.876;12.300;2023-08-06T07:34:35;21.00;99.90
3727;DHT22;1879;45.876;12.300;2023-08-06T07:37:04;21.10;99.90
3727;DHT22;1879;45.876;12.300;2023-08-06T07:39:31;21.20;99.90
3727;DHT22;1879;45.876;12.300;2023-08-06T07:41:58;21.30;99.90
3727;DHT22;1879;45.876;12.300;2023-08-06T07:44:25;21.40;99.90
3727;DHT22;1879;45.876;12.300;2023-08-06T07:46:52;21.40;99.90
3727;DHT22;1879;45.876;12.300;2023-08-06T07:49:19;21.60;99.90
3727;DHT22;1879;45.876;12.300;2023-08-06T07:51:46;21.70;99.90
3727;DHT22;1879;45.876;12.300;2023-08-06T07:54:14;22.00;99.90
3727;DHT22;1879;45.876;12.300;2023-08-06T07:56:41;22.20;99.90
3727;DHT22;1879;45.876;12.300;2023-08-06T07:59:08;22.40;99.90
3727;DHT22;1879;45.876;12.300;2023-08-06T08:01:35;22.50;99.90
3727;DHT22;1879;45.876;12.300;2023-08-06T08:04:03;22.60;99.90
3727;DHT22;1879;45.876;12.300;2023-08-06T08:06:30;22.70;99.90
3727;DHT22;1879;45.876;12.300;2023-08-06T08:08:57;22.80;99.90
3727;DHT22;1879;45.876;12.300;2023-08-06T08:11:25;22.90;99.90
3727;DHT22;1879;45.876;12.300;2023-08-06T08:13:53;23.00;99.90
3727;DHT22;1879;45.876;12.300;2023-08-06T08:16:19;23.10;99.90
3727;DHT22;1879;45.876;12.300;2023-08-06T08:18:46;23.20;99.90
3727;DHT22;1879;45.876;12.300;2023-08-06T08:21:13;23.30;99.90
3727;DHT22;1879;45.876;12.300;2023-08-06T08:23:40;23.30;99.90
3727;DHT22;1879;45.876;12.300;2023-08-06T08:26:09;23.40;99.90
3727;DHT22;1879;45.876;12.300;2023-08-06T08:28:37;23.50;99.90
3727;DHT22;1879;45.876;12.300;2023-08-06T08:31:08;23.50;99.90
3727;DHT22;1879;45.876;12.300;2023-08-06T08:33:35;23.40;99.90
3727;DHT22;1879;45.876;12.300;2023-08-06T08:36:02;23.20;99.90
3727;DHT22;1879;45.876;12.300;2023-08-06T08:38:29;23.00;99.90
3727;DHT22;1879;45.876;12.300;2023-08-06T08:40:56;23.00;99.90
3727;DHT22;1879;45.876;12.300;2023-08-06T08:43:24;22.90;99.90
3727;DHT22;1879;45.876;12.300;2023-08-06T08:45:53;22.90;99.90
3727;DHT22;1879;45.876;12.300;2023-08-06T08:48:21;22.80;99.90
3727;DHT22;1879;45.876;12.300;2023-08-06T08:50:49;22.80;99.90
3727;DHT22;1879;45.876;12.300;2023-08-06T08:53:17;22.90;99.90
3727;DHT22;1879;45.876;12.300;2023-08-06T08:55:47;23.00;99.90
3727;DHT22;1879;45.876;12.300;2023-08-06T08:58:15;23.10;99.90
3727;DHT22;1879;45.876;12.300;2023-08-06T09:00:42;23.00;99.90
3727;DHT22;1879;45.876;12.300;2023-08-06T09:03:11;23.00;99.90
3727;DHT22;1879;45.876;12.300;2023-08-06T09:05:40;23.00;99.90
3727;DHT22;1879;45.876;12.300;2023-08-06T09:08:11;23.00;99.90
3727;DHT22;1879;45.876;12.300;2023-08-06T09:10:40;23.10;99.90
3727;DHT22;1879;45.876;12.300;2023-08-06T09:13:08;23.20;99.90
3727;DHT22;1879;45.876;12.300;2023-08-06T09:15:35;23.20;99.90
3727;DHT22;1879;45.876;12.300;2023-08-06T09:18:10;23.30;99.90
3727;DHT22;1879;45.876;12.300;2023-08-06T09:20:38;23.40;99.90
3727;DHT22;1879;45.876;12.300;2023-08-06T09:23:07;23.50;99.90
3727;DHT22;1879;45.876;12.300;2023-08-06T09:25:38;23.50;99.90
3727;DHT22;1879;45.876;12.300;2023-08-06T09:28:05;23.70;99.90
3727;DHT22;1879;45.876;12.300;2023-08-06T09:30:33;23.70;99.90
3727;DHT22;1879;45.876;12.300;2023-08-06T09:33:01;23.80;99.90
3727;DHT22;1879;45.876;12.300;2023-08-06T09:35:29;23.80;99.90
3727;DHT22;1879;45.876;12.300;2023-08-06T09:38:05;23.90;99.90
3727;DHT22;1879;45.876;12.300;2023-08-06T09:40:33;23.90;99.90
3727;DHT22;1879;45.876;12.300;2023-08-06T09:43:00;23.90;99.90
3727;DHT22;1879;45.876;12.300;2023-08-06T09:45:30;23.90;99.90
3727;DHT22;1879;45.876;12.300;2023-08-06T09:47:58;24.00;99.90
3727;DHT22;1879;45.876;12.300;2023-08-06T09:50:30;24.10;99.90
3727;DHT22;1879;45.876;12.300;2023-08-06T09:52:58;24.30;99.90
3727;DHT22;1879;45.876;12.300;2023-08-06T09:55:25;24.40;99.90
3727;DHT22;1879;45.876;12.300;2023-08-06T09:57:53;24.50;99.90
3727;DHT22;1879;45.876;12.300;2023-08-06T10:00:21;24.60;99.90
3727;DHT22;1879;45.876;12.300;2023-08-06T10:02:49;24.80;99.90
3727;DHT22;1879;45.876;12.300;2023-08-06T10:05:19;24.90;99.90
3727;DHT22;1879;45.876;12.300;2023-08-06T10:07:48;25.20;99.90
3727;DHT22;1879;45.876;12.300;2023-08-06T10:10:16;25.30;99.90
3727;DHT22;1879;45.876;12.300;2023-08-06T10:12:47;25.40;99.90
3727;DHT22;1879;45.876;12.300;2023-08-06T10:15:17;25.70;99.90
3727;DHT22;1879;45.876;12.300;2023-08-06T10:17:47;25.80;99.90
3727;DHT22;1879;45.876;12.300;2023-08-06T10:20:16;26.20;99.90
3727;DHT22;1879;45.876;12.300;2023-08-06T10:22:44;26.30;99.90
3727;DHT22;1879;45.876;12.300;2023-08-06T10:25:16;26.20;99.90
3727;DHT22;1879;45.876;12.300;2023-08-06T10:27:53;26.10;99.90
3727;DHT22;1879;45.876;12.300;2023-08-06T10:30:24;26.70;99.90
3727;DHT22;1879;45.876;12.300;2023-08-06T11:39:51;28.70;96.90
3727;DHT22;1879;45.876;12.300;2023-08-06T11:42:18;28.70;96.70
3727;DHT22;1879;45.876;12.300;2023-08-06T11:47:13;29.10;97.00
3727;DHT22;1879;45.876;12.300;2023-08-06T11:49:43;29.40;96.70
3727;DHT22;1879;45.876;12.300;2023-08-06T11:52:15;29.50;96.10
3727;DHT22;1879;45.876;12.300;2023-08-06T11:54:45;29.30;95.10
3727;DHT22;1879;45.876;12.300;2023-08-06T11:57:12;29.20;94.60
3727;DHT22;1879;45.876;12.300;2023-08-06T11:59:39;29.20;95.40
3727;DHT22;1879;45.876;12.300;2023-08-06T12:02:09;29.10;93.60
3727;DHT22;1879;45.876;12.300;2023-08-06T12:05:00;29.00;94.20
3727;DHT22;1879;45.876;12.300;2023-08-06T12:07:31;29.00;93.90
3727;DHT22;1879;45.876;12.300;2023-08-06T12:09:58;29.20;94.60
3727;DHT22;1879;45.876;12.300;2023-08-06T12:12:25;29.50;95.10
3727;DHT22;1879;45.876;12.300;2023-08-06T12:14:52;29.50;94.40
3727;DHT22;1879;45.876;12.300;2023-08-06T12:17:19;28.90;94.60
3727;DHT22;1879;45.876;12.300;2023-08-06T12:19:46;28.70;95.20
3727;DHT22;1879;45.876;12.300;2023-08-06T12:22:15;29.10;95.40
3727;DHT22;1879;45.876;12.300;2023-08-06T12:24:43;29.70;94.60
3727;DHT22;1879;45.876;12.300;2023-08-06T12:27:10;30.00;94.10
3727;DHT22;1879;45.876;12.300;2023-08-06T12:29:39;30.30;93.70
3727;DHT22;1879;45.876;12.300;2023-08-06T12:32:07;30.70;93.50
3727;DHT22;1879;45.876;12.300;2023-08-06T12:34:34;30.80;93.20
3727;DHT22;1879;45.876;12.300;2023-08-06T12:37:02;30.90;93.20
3727;DHT22;1879;45.876;12.300;2023-08-06T12:39:31;30.60;91.80
3727;DHT22;1879;45.876;12.300;2023-08-06T12:41:58;30.60;92.30
3727;DHT22;1879;45.876;12.300;2023-08-06T12:44:25;30.50;91.70
3727;DHT22;1879;45.876;12.300;2023-08-06T12:46:52;30.10;91.70
3727;DHT22;1879;45.876;12.300;2023-08-06T12:49:20;30.10;92.50
3727;DHT22;1879;45.876;12.300;2023-08-06T12:51:47;30.10;92.20
3727;DHT22;1879;45.876;12.300;2023-08-06T12:54:17;30.00;91.40
3727;DHT22;1879;45.876;12.300;2023-08-06T12:56:46;30.10;91.80
3727;DHT22;1879;45.876;12.300;2023-08-06T12:59:14;30.60;92.00
3727;DHT22;1879;45.876;12.300;2023-08-06T13:01:42;30.70;91.90
3727;DHT22;1879;45.876;12.300;2023-08-06T13:04:11;31.00;91.60
3727;DHT22;1879;45.876;12.300;2023-08-06T13:06:38;30.80;91.20
3727;DHT22;1879;45.876;12.300;2023-08-06T13:09:09;30.70;91.20
3727;DHT22;1879;45.876;12.300;2023-08-06T13:11:36;30.80;90.00
3727;DHT22;1879;45.876;12.300;2023-08-06T13:14:09;31.10;91.00
3727;DHT22;1879;45.876;12.300;2023-08-06T13:16:37;31.10;89.40
3727;DHT22;1879;45.876;12.300;2023-08-06T13:19:05;30.80;89.10
3727;DHT22;1879;45.876;12.300;2023-08-06T13:21:33;30.40;90.50
3727;DHT22;1879;45.876;12.300;2023-08-06T13:24:01;30.60;90.90
3727;DHT22;1879;45.876;12.300;2023-08-06T13:26:28;30.30;90.10
3727;DHT22;1879;45.876;12.300;2023-08-06T13:28:56;29.90;91.10
3727;DHT22;1879;45.876;12.300;2023-08-06T13:31:25;29.50;91.70
3727;DHT22;1879;45.876;12.300;2023-08-06T13:33:53;29.10;92.40
3727;DHT22;1879;45.876;12.300;2023-08-06T13:36:21;28.90;93.10
3727;DHT22;1879;45.876;12.300;2023-08-06T13:38:48;28.40;93.00
3727;DHT22;1879;45.876;12.300;2023-08-06T13:41:15;28.30;93.60
3727;DHT22;1879;45.876;12.300;2023-08-06T13:43:42;27.70;94.00
3727;DHT22;1879;45.876;12.300;2023-08-06T13:46:10;27.50;93.90
3727;DHT22;1879;45.876;12.300;2023-08-06T13:48:42;27.30;94.30
3727;DHT22;1879;45.876;12.300;2023-08-06T13:51:09;26.90;95.40
3727;DHT22;1879;45.876;12.300;2023-08-06T13:53:37;26.70;95.90
3727;DHT22;1879;45.876;12.300;2023-08-06T13:56:04;26.60;96.10
3727;DHT22;1879;45.876;12.300;2023-08-06T13:58:32;26.60;96.40
3727;DHT22;1879;45.876;12.300;2023-08-06T14:00:59;26.60;96.60
3727;DHT22;1879;45.876;12.300;2023-08-06T14:03:26;26.50;96.80
3727;DHT22;1879;45.876;12.300;2023-08-06T14:05:54;26.50;97.00
3727;DHT22;1879;45.876;12.300;2023-08-06T14:08:22;26.50;96.80
3727;DHT22;1879;45.876;12.300;2023-08-06T14:10:49;26.50;97.00
3727;DHT22;1879;45.876;12.300;2023-08-06T14:13:16;26.60;96.80
3727;DHT22;1879;45.876;12.300;2023-08-06T14:15:43;26.60;96.80
3727;DHT22;1879;45.876;12.300;2023-08-06T14:18:12;26.70;97.10
3727;DHT22;1879;45.876;12.300;2023-08-06T14:20:39;27.20;97.10
3727;DHT22;1879;45.876;12.300;2023-08-06T14:23:08;27.70;96.50
3727;DHT22;1879;45.876;12.300;2023-08-06T14:25:35;28.50;96.00
3727;DHT22;1879;45.876;12.300;2023-08-06T14:28:02;28.90;95.20
3727;DHT22;1879;45.876;12.300;2023-08-06T14:30:29;29.10;94.60
3727;DHT22;1879;45.876;12.300;2023-08-06T14:32:56;28.60;94.30
3727;DHT22;1879;45.876;12.300;2023-08-06T14:35:24;28.10;93.90
3727;DHT22;1879;45.876;12.300;2023-08-06T14:37:51;27.30;92.30
3727;DHT22;1879;45.876;12.300;2023-08-06T14:40:19;26.50;91.70
3727;DHT22;1879;45.876;12.300;2023-08-06T14:42:46;26.00;91.60
3727;DHT22;1879;45.876;12.300;2023-08-06T14:45:13;25.80;92.30
3727;DHT22;1879;45.876;12.300;2023-08-06T14:47:40;26.20;92.50
3727;DHT22;1879;45.876;12.300;2023-08-06T14:50:08;26.10;92.30
3727;DHT22;1879;45.876;12.300;2023-08-06T14:52:35;25.90;92.30
3727;DHT22;1879;45.876;12.300;2023-08-06T14:55:02;25.60;91.20
3727;DHT22;1879;45.876;12.300;2023-08-06T14:57:30;26.00;92.60
3727;DHT22;1879;45.876;12.300;2023-08-06T14:59:57;26.00;93.00
3727;DHT22;1879;45.876;12.300;2023-08-06T15:02:26;26.10;92.80
3727;DHT22;1879;45.876;12.300;2023-08-06T15:04:53;26.00;93.00
3727;DHT22;1879;45.876;12.300;2023-08-06T15:07:20;26.20;93.60
3727;DHT22;1879;45.876;12.300;2023-08-06T15:09:47;27.80;93.90
3727;DHT22;1879;45.876;12.300;2023-08-06T15:12:14;29.50;92.40
3727;DHT22;1879;45.876;12.300;2023-08-06T15:14:44;29.80;90.10
3727;DHT22;1879;45.876;12.300;2023-08-06T15:17:11;29.50;90.40
3727;DHT22;1879;45.876;12.300;2023-08-06T15:19:38;29.00;90.40
3727;DHT22;1879;45.876;12.300;2023-08-06T15:22:05;28.50;90.50
3727;DHT22;1879;45.876;12.300;2023-08-06T15:24:32;28.20;90.50
3727;DHT22;1879;45.876;12.300;2023-08-06T15:26:59;28.10;89.20
3727;DHT22;1879;45.876;12.300;2023-08-06T15:29:26;27.60;87.50
3727;DHT22;1879;45.876;12.300;2023-08-06T15:31:55;27.00;88.60
3727;DHT22;1879;45.876;12.300;2023-08-06T15:34:22;26.50;89.80
3727;DHT22;1879;45.876;12.300;2023-08-06T15:36:48;26.30;91.10
3727;DHT22;1879;45.876;12.300;2023-08-06T15:39:16;26.60;92.00
3727;DHT22;1879;45.876;12.300;2023-08-06T15:41:43;27.00;91.70
3727;DHT22;1879;45.876;12.300;2023-08-06T15:44:10;27.40;91.60
3727;DHT22;1879;45.876;12.300;2023-08-06T15:46:37;27.50;90.00
3727;DHT22;1879;45.876;12.300;2023-08-06T15:49:05;27.50;89.40
3727;DHT22;1879;45.876;12.300;2023-08-06T15:51:32;27.50;89.90
3727;DHT22;1879;45.876;12.300;2023-08-06T15:53:59;27.70;90.00
3727;DHT22;1879;45.876;12.300;2023-08-06T15:56:26;27.90;90.20
3727;DHT22;1879;45.876;12.300;2023-08-06T15:58:53;28.00;89.60
3727;DHT22;1879;45.876;12.300;2023-08-06T16:01:20;27.70;87.90
3727;DHT22;1879;45.876;12.300;2023-08-06T16:03:47;27.70;89.10
3727;DHT22;1879;45.876;12.300;2023-08-06T16:06:15;27.80;87.50
3727;DHT22;1879;45.876;12.300;2023-08-06T16:08:42;28.00;90.10
3727;DHT22;1879;45.876;12.300;2023-08-06T16:11:09;28.00;88.30
3727;DHT22;1879;45.876;12.300;2023-08-06T16:13:36;28.00;88.20
3727;DHT22;1879;45.876;12.300;2023-08-06T16:16:03;27.70;89.10
3727;DHT22;1879;45.876;12.300;2023-08-06T16:18:30;27.50;89.80
3727;DHT22;1879;45.876;12.300;2023-08-06T16:20:57;27.30;89.70
3727;DHT22;1879;45.876;12.300;2023-08-06T16:23:26;27.10;89.40
3727;DHT22;1879;45.876;12.300;2023-08-06T16:25:53;26.90;88.60
3727;DHT22;1879;45.876;12.300;2023-08-06T16:28:20;26.70;89.20
3727;DHT22;1879;45.876;12.300;2023-08-06T16:30:47;26.40;88.50
3727;DHT22;1879;45.876;12.300;2023-08-06T16:33:14;26.30;89.50
3727;DHT22;1879;45.876;12.300;2023-08-06T16:35:41;26.20;89.00
3727;DHT22;1879;45.876;12.300;2023-08-06T16:38:08;26.10;90.10
3727;DHT22;1879;45.876;12.300;2023-08-06T16:40:38;26.10;90.20
3727;DHT22;1879;45.876;12.300;2023-08-06T16:43:05;26.20;90.50
3727;DHT22;1879;45.876;12.300;2023-08-06T16:45:32;26.20;90.40
3727;DHT22;1879;45.876;12.300;2023-08-06T16:48:03;26.20;90.10
3727;DHT22;1879;45.876;12.300;2023-08-06T16:50:30;26.10;90.50
3727;DHT22;1879;45.876;12.300;2023-08-06T16:52:57;26.00;90.70
3727;DHT22;1879;45.876;12.300;2023-08-06T16:55:24;26.00;91.00
3727;DHT22;1879;45.876;12.300;2023-08-06T16:57:53;26.20;91.10